Latest Weather Observations for Kingscote

IDS60801

Issued at 11:02 am CDT Tuesday 3 March 2015 (issued every 30 minutes, with the page automatically refreshed every 10 minutes)

About weather observations | Map of weather stations | Latest weather observations for SA | Other Formats
Station Details ID: 022841 Name: KINGSCOTE AERO Lat: -35.71 Lon: 137.52 Height: 6.23 m
Data from the previous 72 hours. | See also: Recent months at Kingscote
Date/Time
CDT
Temp
°C
App
Temp
°C
Dew
Point
Rel
Hum
%
Delta-T
°C
Wind Press
QNH
hPa
Press
MSL
hPa
Rain
since 9 am
mm
Dir
 
Spd
km/h
Gust
km/h
Spd
kts
Gust
kts
03/11:00am 20.7 15.9 9.0 47 6.2 SSE 24 32 13 17 1020.1 1020.1 0.0
03/10:30am 20.1 16.5 9.9 52 5.4 SSE 19 26 10 14 1019.9 1019.9 0.0
03/10:00am 20.1 16.2 10.8 55 5.1 S 22 30 12 16 1019.5 1019.5 0.0
03/09:30am 18.0 14.4 10.4 61 4.0 S 20 30 11 16 1019.7 1019.7 0.0
03/09:00am 17.5 15.1 11.5 68 3.3 SSE 15 20 8 11 1019.4 1019.4 0.0
03/08:30am 16.0 14.2 12.0 77 2.2 S 13 15 7 8 1019.2 1019.2 0.0
03/08:00am 13.1 11.4 11.2 88 1.0 S 11 13 6 7 1019.0 1019.0 0.0
03/07:30am 11.7 9.7 10.3 91 0.7 SSW 11 13 6 7 1018.6 1018.6 0.0
03/07:00am 10.8 8.9 9.2 90 0.8 SSW 9 11 5 6 1018.2 1018.2 0.0
03/06:30am 11.2 9.1 9.9 92 0.7 SSW 11 11 6 6 1017.8 1017.8 0.0
03/06:00am 10.9 9.6 9.8 93 0.6 SSW 7 9 4 5 1017.3 1017.3 0.0
03/05:30am 11.3 10.0 9.9 91 0.7 S 7 9 4 5 1017.2 1017.2 0.0
03/05:00am 11.7 10.0 9.9 89 0.9 S 9 9 5 5 1017.0 1017.0 0.0
03/04:30am 12.5 11.0 10.7 89 0.9 S 9 9 5 5 1017.0 1017.0 0.0
03/04:00am 12.7 11.7 10.9 89 0.9 SSW 7 9 4 5 1016.9 1016.9 0.0
03/03:30am 13.5 12.7 11.6 88 1.0 S 7 9 4 5 1016.9 1016.9 0.0
03/03:00am 13.9 12.3 11.6 86 1.2 SSW 11 11 6 6 1016.8 1016.8 0.0
03/02:30am 14.6 14.4 11.9 84 1.5 SSW 4 7 2 4 1017.1 1017.1 0.0
03/02:00am 15.0 13.2 12.1 83 1.6 S 13 15 7 8 1017.3 1017.3 0.0
03/01:30am 15.7 14.3 12.1 79 2.0 S 11 15 6 8 1017.3 1017.3 0.0
03/01:00am 16.3 14.2 12.3 77 2.2 S 15 20 8 11 1017.6 1017.6 0.0
03/12:30am 16.7 13.9 12.5 76 2.3 S 19 24 10 13 1017.5 1017.5 0.0
03/12:00am 16.9 14.5 12.8 77 2.3 S 17 24 9 13 1017.7 1017.7 0.0
 
Date/Time
CDT
Temp
°C
App
Temp
°C
Dew
Point
Rel
Hum
%
Delta-T
°C
Wind Press
QNH
hPa
Press
MSL
hPa
Rain
since 9 am
mm
Dir
 
Spd
km/h
Gust
km/h
Spd
kts
Gust
kts
02/11:30pm 16.6 15.0 12.8 78 2.1 S 13 15 7 8 1017.8 1017.8 0.0
02/11:00pm 16.6 14.9 12.6 77 2.2 S 13 17 7 9 1017.9 1017.9 0.0
02/10:30pm 16.8 14.7 12.5 76 2.4 S 15 20 8 11 1017.8 1017.8 0.0
02/10:00pm 17.1 14.6 12.4 74 2.6 S 17 22 9 12 1017.9 1017.9 0.0
02/09:30pm 17.2 14.7 12.3 73 2.7 S 17 20 9 11 1017.5 1017.5 0.0
02/09:00pm 17.3 14.8 12.2 72 2.8 S 17 22 9 12 1016.9 1016.9 0.0
02/08:30pm 17.3 14.4 12.8 75 2.5 S 20 24 11 13 1016.4 1016.4 0.0
02/08:00pm 17.6 14.6 12.7 73 2.7 S 20 26 11 14 1016.0 1016.0 0.0
02/07:30pm 17.9 13.5 13.0 73 2.7 S 28 33 15 18 1016.0 1016.0 0.0
02/07:00pm 18.4 14.9 13.5 73 2.8 S 24 32 13 17 1015.6 1015.6 0.0
02/06:30pm 18.9 14.7 13.5 71 3.1 S 28 35 15 19 1015.1 1015.1 0.0
02/06:00pm 20.1 16.8 14.0 68 3.5 S 24 35 13 19 1014.7 1014.7 0.0
02/05:30pm 20.5 16.2 13.2 63 4.2 SSW 28 37 15 20 1014.2 1014.2 0.0
02/05:00pm 21.9 17.4 12.5 55 5.3 S 28 35 15 19 1014.0 1014.0 0.0
02/04:53pm 22.7 18.9 12.3 52 5.9 S 24 33 13 18 1013.8 1013.8 0.0
02/04:30pm 25.0 23.4 10.1 39 8.2 W 9 13 5 7 1013.4 1013.4 0.0
02/04:00pm 24.5 23.0 10.4 41 7.8 NNW 9 15 5 8 1013.5 1013.5 0.0
02/03:30pm 24.1 20.9 11.4 45 7.1 NNE 19 26 10 14 1013.9 1013.9 0.0
02/03:00pm 24.7 24.0 13.3 49 6.6 NNE 9 15 5 8 1014.0 1014.0 0.0
02/02:30pm 24.3 23.2 11.9 45 7.0 ENE 9 19 5 10 1014.0 1014.0 0.0
02/02:00pm 23.6 22.5 13.2 52 6.0 NNE 11 19 6 10 1014.3 1014.3 0.0
02/01:30pm 23.0 22.4 11.7 49 6.3 S 6 11 3 6 1014.3 1014.3 0.0
02/01:00pm 22.3 20.8 12.0 52 5.8 N 11 17 6 9 1014.8 1014.8 0.0
02/12:30pm 21.8 21.7 13.2 58 4.9 ESE 6 13 3 7 1014.7 1014.7 0.0
02/12:00pm 20.5 21.5 13.2 63 4.2 CALM 0 0 0 0 1015.3 1015.3 0.0
02/11:30am 20.2 19.4 12.9 63 4.1 ENE 9 13 5 7 1015.2 1015.2 0.0
02/11:00am 19.7 18.5 12.9 65 3.8 ENE 11 15 6 8 1015.5 1015.5 0.0
02/10:30am 19.2 18.4 12.9 67 3.5 E 9 13 5 7 1015.6 1015.6 0.0
02/10:00am 18.4 17.5 12.6 69 3.2 SE 9 13 5 7 1015.9 1015.9 0.0
02/09:30am 17.3 15.7 12.8 75 2.5 S 13 17 7 9 1016.0 1016.0 0.0
02/09:00am 16.1 14.5 12.7 80 1.9 S 13 17 7 9 1016.5 1016.5 0.0
02/08:30am 14.7 13.5 12.7 88 1.1 SW 11 13 6 7 1016.4 1016.4 0.0
02/08:00am 12.3 10.2 11.2 93 0.6 SW 13 15 7 8 1016.2 1016.2 0.0
02/07:30am 11.8 10.0 10.9 94 0.5 SW 11 11 6 6 1015.8 1015.8 0.0
02/07:00am 11.1 9.1 10.0 93 0.6 WSW 11 15 6 8 1015.7 1015.7 0.0
02/06:30am 10.7 9.0 9.8 94 0.5 SW 9 11 5 6 1015.5 1015.5 0.0
02/06:00am 10.5 9.1 9.6 94 0.5 SW 7 9 4 5 1015.6 1015.6 0.0
02/05:30am 9.9 9.6 8.8 93 0.5 CALM 0 0 0 0 1015.3 1015.3 0.0
02/05:00am 9.4 7.4 8.5 94 0.4 S 9 11 5 6 1014.9 1014.9 0.0
02/04:30am 8.7 6.9 7.9 95 0.4 SW 7 9 4 5 1015.3 1015.3 0.0
02/04:00am 7.7 5.2 6.6 93 0.5 S 9 13 5 7 1015.6 1015.6 0.0
02/03:30am 7.5 5.1 6.8 95 0.3 SW 9 11 5 6 1015.5 1015.5 0.0
02/03:00am 8.6 8.0 7.5 93 0.5 CALM 0 0 0 0 1015.9 1015.9 0.0
02/02:30am 8.8 7.8 7.3 90 0.7 SW 2 6 1 3 1016.4 1016.4 0.0
02/02:00am 9.5 7.7 7.9 90 0.8 SSW 7 7 4 4 1017.0 1017.0 0.0
02/01:30am 9.5 7.4 8.1 91 0.7 SW 9 9 5 5 1017.7 1017.7 0.0
02/01:00am 9.0 6.0 7.5 90 0.7 SW 13 15 7 8 1017.7 1017.7 0.0
02/12:30am 9.4 7.0 7.0 85 1.1 SSW 9 11 5 6 1017.8 1017.8 0.0
02/12:00am 11.6 9.6 8.5 81 1.5 SSE 9 9 5 5 1017.6 1017.6 0.0
 
Date/Time
CDT
Temp
°C
App
Temp
°C
Dew
Point
Rel
Hum
%
Delta-T
°C
Wind Press
QNH
hPa
Press
MSL
hPa
Rain
since 9 am
mm
Dir
 
Spd
km/h
Gust
km/h
Spd
kts
Gust
kts
01/11:30pm 12.7 10.8 9.2 79 1.8 SE 9 11 5 6 1017.7 1017.7 0.0
01/11:00pm 12.9 11.1 9.5 80 1.7 SE 9 11 5 6 1017.9 1017.9 0.0
01/10:30pm 12.9 10.7 9.2 78 1.9 ESE 11 15 6 8 1018.0 1018.0 0.0
01/10:00pm 13.6 11.0 9.3 75 2.2 SE 13 15 7 8 1018.4 1018.4 0.0
01/09:30pm 13.9 11.7 9.3 74 2.3 SE 11 15 6 8 1018.5 1018.5 0.0
01/09:00pm 14.4 11.8 9.2 71 2.6 SSE 13 17 7 9 1018.5 1018.5 0.0
01/08:30pm 15.2 12.3 9.6 69 2.9 SE 15 17 8 9 1018.3 1018.3 0.0
01/08:00pm 16.1 12.2 9.5 65 3.4 SSE 20 26 11 14 1018.5 1018.5 0.0
01/07:30pm 17.0 13.4 9.7 62 3.8 SSE 19 24 10 13 1018.0 1018.0 0.0
01/07:00pm 18.3 13.8 9.9 58 4.5 SSE 24 28 13 15 1017.9 1017.9 0.0
01/06:30pm 18.5 14.3 9.6 56 4.7 SSE 22 28 12 15 1017.6 1017.6 0.0
01/06:00pm 19.0 15.4 9.8 55 4.9 SSE 19 26 10 14 1017.3 1017.3 0.0
01/05:30pm 19.9 15.2 9.2 50 5.6 SE 24 33 13 18 1017.1 1017.1 0.0
01/05:00pm 19.1 14.2 10.1 56 4.8 SE 26 37 14 20 1017.5 1017.5 0.0
01/04:30pm 19.9 15.6 9.5 51 5.5 SE 22 30 12 16 1017.5 1017.5 0.0
01/04:00pm 21.0 16.5 9.9 49 6.0 SE 24 33 13 18 1017.4 1017.4 0.0
01/03:30pm 20.7 16.9 9.9 50 5.8 SE 20 33 11 18 1017.7 1017.7 0.0
01/03:00pm 22.1 17.7 10.3 47 6.4 SE 24 33 13 18 1017.6 1017.6 0.0
01/02:30pm 20.0 15.1 10.1 53 5.3 SE 26 35 14 19 1018.0 1018.0 0.0
01/02:00pm 21.7 16.0 11.1 51 5.9 SSE 32 43 17 23 1017.9 1017.9 0.0
01/01:30pm 20.2 15.6 10.9 55 5.1 SE 26 37 14 20 1018.0 1018.0 0.0
01/01:00pm 19.3 13.8 10.6 57 4.7 SE 30 37 16 20 1018.3 1018.3 0.0
01/12:30pm 19.4 14.7 10.7 57 4.7 SSE 26 35 14 19 1018.6 1018.6 0.0
01/12:00pm 18.8 13.8 10.9 60 4.3 SSE 28 41 15 22 1018.7 1018.7 0.0
01/11:30am 19.6 15.0 9.8 53 5.2 SSE 24 35 13 19 1018.5 1018.5 0.0
01/11:00am 19.5 15.2 10.8 57 4.7 SE 24 33 13 18 1018.5 1018.5 0.0
01/10:30am 19.1 14.6 10.1 56 4.8 SSE 24 33 13 18 1017.9 1017.9 0.0
01/10:00am 18.8 14.2 11.1 61 4.2 S 26 33 14 18 1017.6 1017.6 0.0
01/09:30am 19.4 14.5 11.2 59 4.5 S 28 35 15 19 1017.3 1017.3 0.0
01/09:00am 17.2 12.6 11.2 68 3.2 S 26 32 14 17 1017.1 1017.1 1.0
01/08:30am 16.9 13.7 11.2 69 3.1 S 19 26 10 14 1016.7 1016.7 1.0
01/08:00am 15.4 13.0 11.4 77 2.1 S 15 20 8 11 1016.3 1016.3 1.0
01/07:30am 15.1 11.8 10.9 76 2.2 S 19 26 10 14 1015.6 1015.6 1.0
01/07:00am 14.6 11.6 10.6 77 2.1 S 17 20 9 11 1015.1 1015.1 1.0
01/06:30am 14.7 12.5 10.9 78 2.0 S 13 19 7 10 1014.6 1014.6 1.0
01/06:00am 13.6 11.2 10.0 79 1.9 SSW 13 15 7 8 1014.3 1014.3 1.0
01/05:30am 14.2 11.1 10.2 77 2.1 S 17 26 9 14 1014.0 1014.0 1.0
01/05:00am 14.8 12.8 11.6 81 1.7 SSW 13 17 7 9 1013.7 1013.7 1.0
01/04:30am 14.7 12.0 11.7 82 1.6 SSW 17 24 9 13 1013.6 1013.6 1.0
01/04:04am 15.0 12.5 12.3 84 1.5 SSW 17 39 9 21 1013.6 1013.6 1.0
01/04:00am 14.0 12.9 10.8 81 1.7 SW 7 19 4 10 1013.6 1013.6 1.0
01/03:30am 12.9 10.6 9.0 77 2.0 WSW 11 13 6 7 1013.3 1013.3 1.0
01/03:00am 12.8 9.9 8.1 73 2.3 SW 13 13 7 7 1013.2 1013.2 1.0
01/02:30am 13.7 10.7 7.5 66 3.0 SW 13 15 7 8 1013.2 1013.2 1.0
01/02:00am 15.5 11.8 7.8 60 3.8 SW 17 20 9 11 1013.2 1013.2 1.0
01/01:30am 15.2 11.9 8.2 63 3.5 SW 15 20 8 11 1013.2 1013.2 1.0
01/01:00am 16.1 11.8 9.3 64 3.5 SSW 22 30 12 16 1013.2 1013.2 1.0
01/12:30am 15.4 13.2 10.8 74 2.4 SSW 13 19 7 10 1013.2 1013.2 1.0
01/12:00am 15.8 13.3 11.0 73 2.6 SW 15 20 8 11 1013.1 1013.1 1.0
 
Date/Time
CDT
Temp
°C
App
Temp
°C
Dew
Point
Rel
Hum
%
Delta-T
°C
Wind Press
QNH
hPa
Press
MSL
hPa
Rain
since 9 am
mm
Dir
 
Spd
km/h
Gust
km/h
Spd
kts
Gust
kts
28/11:30pm 16.3 12.9 11.2 72 2.7 SSW 20 32 11 17 1013.0 1013.0 1.0
28/11:00pm 16.5 13.9 12.1 75 2.4 SW 17 24 9 13 1012.8 1012.8 1.0
28/10:30pm 16.7 14.6 12.5 76 2.3 SW 15 20 8 11 1012.6 1012.6 1.0
28/10:00pm 16.4 13.8 12.0 75 2.4 SW 17 24 9 13 1012.4 1012.4 1.0
28/09:30pm 17.0 14.2 12.7 76 2.4 SW 19 26 10 14 1012.0 1012.0 1.0
28/09:00pm 17.6 13.6 13.1 75 2.5 SW 26 37 14 20 1011.4 1011.4 1.0
28/08:30pm 18.0 15.4 13.7 76 2.4 SSW 20 30 11 16 1010.8 1010.8 1.0
28/08:00pm 17.6 14.5 13.3 76 2.4 SSW 22 28 12 15 1010.1 1010.1 1.0
28/07:30pm 18.3 13.0 13.2 72 2.9 SSW 33 44 18 24 1009.7 1009.7 1.0
28/07:00pm 18.7 13.3 12.9 69 3.3 SSW 33 41 18 22 1009.4 1009.4 1.0
28/06:30pm 19.7 14.2 13.6 68 3.5 SSW 35 48 19 26 1008.9 1008.9 1.0
28/06:00pm 20.9 15.7 14.5 67 3.7 SSW 35 44 19 24 1008.4 1008.4 1.0
28/05:30pm 20.8 15.5 14.2 66 3.8 SSW 35 44 19 24 1007.8 1007.8 1.0
28/05:00pm 19.9 16.0 16.5 81 2.0 SSW 32 41 17 22 1007.5 1007.5 1.0
28/04:53pm 19.9 15.9 16.3 80 2.2 SSW 32 41 17 22 1007.4 1007.4 1.0
28/04:38pm 19.6 16.3 17.0 85 1.6 SSW 30 39 16 21 1007.5 1007.5 1.0
28/04:30pm 19.7 17.3 17.3 86 1.5 SSW 26 35 14 19 1007.3 1007.3 1.0
28/04:00pm 19.9 17.4 17.1 84 1.7 SSW 26 33 14 18 1006.8 1006.8 1.0
28/03:30pm 19.7 18.2 17.7 88 1.2 SSW 22 30 12 16 1006.8 1006.8 1.0
28/03:21pm 19.7 18.9 18.0 90 1.0 SSW 19 26 10 14 1006.7 1006.7 1.0
28/03:01pm 19.5 16.1 16.7 84 1.7 SSW 30 37 16 20 1006.4 1006.4 0.4
28/03:00pm 19.6 16.1 16.6 83 1.8 SSW 30 37 16 20 1006.3 1006.3 0.2
28/02:41pm 21.4 17.2 16.1 72 3.2 SSW 33 43 18 23 1006.3 1006.3 0.0
28/02:30pm 22.6 18.9 16.9 70 3.5 SSW 32 44 17 24 1005.9 1005.9 0.0
28/02:22pm 21.4 19.1 18.4 83 1.9 SSW 28 33 15 18 1005.8 1005.8 0.0
28/02:00pm 23.2 20.1 17.6 71 3.5 SSW 30 39 16 21 1005.6 1005.6 0.0
28/01:30pm 26.5 21.5 16.1 52 6.4 SSW 37 46 20 25 1005.2 1005.2 0.0
28/01:00pm 28.7 23.7 13.4 39 9.1 SSW 32 44 17 24 1004.8 1004.8 0.0
28/12:30pm 27.4 22.7 14.8 46 7.6 SSW 33 44 18 24 1004.9 1004.9 0.0
28/12:00pm 28.0 24.2 14.6 44 8.1 SSW 28 41 15 22 1004.8 1004.8 0.0
28/11:30am 28.6 26.4 16.8 48 7.4 SSW 24 33 13 18 1004.6 1004.6 0.0

Other Formats:

Comma delimited format used in spreadsheet applications
http://www.bom.gov.au/fwo/IDS60801/IDS60801.95807.axf

JavaScript Object Notation format (JSON) in row-major order
http://www.bom.gov.au/fwo/IDS60801/IDS60801.95807.json